KJCT/JCT METAR and TAF weather

Enter ICAO airport designator
Station Type Date Time Source
KJCT METAR 2022/01/26 20:05 UTC NOAA

KJCT 262005Z AUTO 08010KT 5SM HZ OVC010 05/02 A3023 RMK AO2 T00500017


Station Type Date Time Source
KJCT Decoded METAR 2022/01/26 20:05 UTC NOAA

KIMBLE COUNTY AIRPORT, TX, United States (KJCT) 30-31N 099-46W 523M
Jan 26, 2022 - 03:05 PM EST / 2022.01.26 2005 UTC
Wind: from the E (080 degrees) at 12 MPH (10 KT):0
Visibility: 5 mile(s):0
Sky conditions: overcast
Weather: haze
Temperature: 41.0 F (5.0 C)
Dew Point: 35.1 F (1.7 C)
Relative Humidity: 79%
Pressure (altimeter): 30.23 in. Hg (1023 hPa)
ob: KJCT 262005Z AUTO 08010KT 5SM HZ OVC010 05/02 A3023 RMK AO2 T00500017
cycle: 20

Station Type Date Time Source
KJCT TAF 2022/01/26 20:51 UTC NOAA

TAF
AMD KJCT 261948Z 2620/2718 08012KT P6SM SCT008 OVC015
TEMPO 2620/2621 6SM BR OVC008
FM270200 VRB06KT P6SM SCT025 OVC040
FM270900 VRB04KT 6SM BR SCT015 OVC025
FM271600 20006KT P6SM SCT025 BKN050

Example: see airport list